createdAt,value
2022-08-31T00:01:31.665Z,65.80
2022-08-31T00:04:02.299Z,65.38
2022-08-31T00:13:46.977Z,65.67
2022-08-31T00:16:13.669Z,65.52
2022-08-31T00:18:40.231Z,65.98
2022-08-31T00:21:06.957Z,65.89
2022-08-31T00:24:18.955Z,65.95
2022-08-31T00:26:45.432Z,65.94
2022-08-31T00:29:12.892Z,66.00
2022-08-31T00:31:39.791Z,65.94
2022-08-31T00:34:06.535Z,66.07
2022-08-31T00:36:33.438Z,65.94
2022-08-31T00:39:02.501Z,66.24
2022-08-31T00:41:31.281Z,66.25
2022-08-31T00:44:01.208Z,66.04
2022-08-31T00:46:30.948Z,66.07
2022-08-31T00:49:17.348Z,66.25
2022-08-31T00:51:51.932Z,66.24
2022-08-31T00:54:25.520Z,66.65
2022-08-31T00:56:53.401Z,66.34
2022-08-31T00:59:20.997Z,66.04
2022-08-31T01:01:47.514Z,66.17
2022-08-31T01:04:14.520Z,66.36
2022-08-31T01:06:42.358Z,66.73
2022-08-31T01:09:09.690Z,66.66
2022-08-31T01:11:39.451Z,66.57
2022-08-31T01:14:08.175Z,66.90
2022-08-31T01:16:45.157Z,66.84
2022-08-31T01:19:22.556Z,67.13
2022-08-31T01:21:59.444Z,67.08
2022-08-31T01:24:27.416Z,66.58
2022-08-31T01:26:55.846Z,66.78
2022-08-31T01:29:22.561Z,66.77
2022-08-31T01:31:49.195Z,67.18
2022-08-31T01:34:15.707Z,67.30
2022-08-31T01:36:43.726Z,67.24
2022-08-31T01:39:11.612Z,67.47
2022-08-31T01:41:43.959Z,67.32
2022-08-31T01:44:13.624Z,67.13
2022-08-31T01:46:40.395Z,67.12
2022-08-31T01:49:06.929Z,67.35
2022-08-31T01:51:33.896Z,67.53
2022-08-31T01:54:00.472Z,67.22
2022-08-31T01:56:39.812Z,67.14
2022-08-31T01:59:08.786Z,66.75
2022-08-31T02:01:38.592Z,67.02
2022-08-31T02:04:07.864Z,66.77
2022-08-31T02:06:34.893Z,66.93
2022-08-31T02:09:03.897Z,67.03
2022-08-31T02:11:30.293Z,67.14
2022-08-31T02:13:57.422Z,67.22
2022-08-31T02:16:24.422Z,66.97
2022-08-31T02:18:51.462Z,67.17
2022-08-31T02:21:18.241Z,67.63
2022-08-31T02:23:44.884Z,67.35
2022-08-31T02:26:11.763Z,67.37
2022-08-31T02:28:38.469Z,67.56
2022-08-31T02:31:04.999Z,67.80
2022-08-31T02:33:31.748Z,67.59
2022-08-31T02:35:58.779Z,67.75
2022-08-31T02:38:25.379Z,67.57
2022-08-31T02:40:53.992Z,67.57
2022-08-31T02:43:24.940Z,67.54
2022-08-31T02:45:52.986Z,67.52
2022-08-31T02:48:20.747Z,67.61
2022-08-31T02:50:49.579Z,67.60
2022-08-31T02:53:18.012Z,67.67
2022-08-31T02:55:45.096Z,67.58
2022-08-31T02:58:12.855Z,67.74
2022-08-31T03:00:43.274Z,68.01
2022-08-31T03:03:09.888Z,68.04
2022-08-31T03:05:36.471Z,67.69
2022-08-31T03:08:03.275Z,68.32
2022-08-31T03:10:29.768Z,68.14
2022-08-31T03:12:56.529Z,68.54
2022-08-31T03:15:25.086Z,68.31
2022-08-31T03:17:51.663Z,68.34
2022-08-31T03:20:20.320Z,68.60
2022-08-31T03:22:46.957Z,68.59
2022-08-31T03:25:14.009Z,68.12
2022-08-31T03:27:40.975Z,68.28
2022-08-31T03:30:11.340Z,68.02
2022-08-31T03:32:39.008Z,68.02
2022-08-31T03:35:06.872Z,68.25
2022-08-31T03:37:34.004Z,68.16
2022-08-31T03:40:00.907Z,67.77
2022-08-31T03:42:27.697Z,67.90
2022-08-31T03:44:55.213Z,67.97
2022-08-31T03:47:21.622Z,67.65
2022-08-31T03:49:50.348Z,68.07
2022-08-31T03:52:17.089Z,68.15
2022-08-31T03:54:43.902Z,67.80
2022-08-31T03:57:10.860Z,67.85
2022-08-31T03:59:37.240Z,68.09
2022-08-31T04:02:03.852Z,68.03
2022-08-31T04:04:30.388Z,67.99
2022-08-31T04:06:56.889Z,67.50
2022-08-31T04:09:23.684Z,67.07
2022-08-31T04:11:52.094Z,67.39
2022-08-31T04:14:18.778Z,67.66
2022-08-31T04:16:45.492Z,67.54
2022-08-31T04:19:16.009Z,67.43
2022-08-31T04:21:44.533Z,67.68
2022-08-31T04:24:12.018Z,67.86
2022-08-31T04:26:40.683Z,67.49
2022-08-31T04:29:12.867Z,67.41
2022-08-31T04:31:40.500Z,67.32
2022-08-31T04:34:06.957Z,67.03
2022-08-31T04:36:33.556Z,67.19
2022-08-31T04:39:02.061Z,67.55
2022-08-31T04:41:31.225Z,67.28
2022-08-31T04:43:59.727Z,67.21
2022-08-31T04:46:27.845Z,67.25
2022-08-31T04:48:54.719Z,67.08
2022-08-31T04:51:27.962Z,66.74
2022-08-31T04:53:55.040Z,66.78
2022-08-31T04:56:25.685Z,66.39
2022-08-31T04:59:01.911Z,66.20
2022-08-31T05:01:31.792Z,66.14
2022-08-31T05:04:07.954Z,66.13
2022-08-31T05:06:36.987Z,65.95
2022-08-31T05:09:08.485Z,66.01
2022-08-31T05:11:35.484Z,65.67
2022-08-31T05:14:04.601Z,65.58
2022-08-31T05:16:31.159Z,65.24
2022-08-31T05:18:59.024Z,65.29
2022-08-31T05:21:28.511Z,65.05
2022-08-31T05:24:16.075Z,65.12
2022-08-31T05:26:45.545Z,64.82
2022-08-31T05:29:15.740Z,64.87
2022-08-31T05:31:43.615Z,64.48
2022-08-31T05:34:12.550Z,64.30
2022-08-31T05:36:40.724Z,64.42
2022-08-31T05:39:09.533Z,64.42
2022-08-31T05:41:35.955Z,63.99
2022-08-31T05:44:04.175Z,63.93
2022-08-31T05:46:37.915Z,63.61
2022-08-31T05:49:07.326Z,62.61
2022-08-31T05:55:21.176Z,60.73
2022-08-31T05:57:54.223Z,60.56
2022-08-31T06:00:20.984Z,60.34
2022-08-31T06:02:50.170Z,61.16
2022-08-31T06:05:20.401Z,61.05
2022-08-31T06:07:47.366Z,61.22
2022-08-31T06:10:15.311Z,60.70
2022-08-31T06:12:43.455Z,60.69
2022-08-31T06:15:11.458Z,60.28
2022-08-31T06:17:38.068Z,60.89
2022-08-31T06:20:06.157Z,59.36
2022-08-31T06:22:35.432Z,54.58
2022-08-31T06:25:03.278Z,50.42
2022-08-31T06:27:29.915Z,48.57
2022-08-31T06:30:02.047Z,49.90
2022-08-31T06:39:13.417Z,57.03
2022-08-31T06:41:58.514Z,58.06
2022-08-31T06:44:25.215Z,58.44
2022-08-31T06:46:53.049Z,58.73
2022-08-31T06:49:20.358Z,59.10
2022-08-31T06:51:47.605Z,59.57
2022-08-31T06:54:29.099Z,59.48
2022-08-31T06:57:03.011Z,59.73
2022-08-31T06:59:30.148Z,59.56
2022-08-31T07:02:01.178Z,59.87
2022-08-31T07:04:30.943Z,59.76
2022-08-31T07:06:57.424Z,59.60
2022-08-31T07:09:23.856Z,59.64
2022-08-31T07:11:52.187Z,59.95
2022-08-31T07:14:22.818Z,59.53
2022-08-31T07:16:50.318Z,59.36
2022-08-31T07:19:17.919Z,55.48
2022-08-31T07:21:53.466Z,51.26
2022-08-31T07:24:23.867Z,47.25
2022-08-31T07:26:58.757Z,45.68
2022-08-31T07:29:30.168Z,42.47
2022-08-31T07:31:59.450Z,38.88
2022-08-31T07:34:29.022Z,36.14
2022-08-31T07:37:16.084Z,33.35
2022-08-31T07:40:06.812Z,33.45
2022-08-31T07:42:40.338Z,32.46
2022-08-31T07:45:12.827Z,32.09
2022-08-31T07:47:47.391Z,32.21
2022-08-31T07:50:16.185Z,31.29
2022-08-31T07:52:47.472Z,29.71
2022-08-31T07:55:16.400Z,30.46
2022-08-31T07:57:44.133Z,31.74
2022-08-31T08:00:21.397Z,31.04
2022-08-31T08:02:53.165Z,29.95
2022-08-31T08:05:27.305Z,29.50
2022-08-31T08:07:57.337Z,31.06
2022-08-31T08:10:56.399Z,29.24
2022-08-31T08:13:23.185Z,29.88
2022-08-31T08:15:50.855Z,30.40
2022-08-31T08:18:19.024Z,29.64
2022-08-31T08:20:45.498Z,30.34
2022-08-31T08:23:15.133Z,29.95
2022-08-31T08:25:46.179Z,31.62
2022-08-31T08:31:05.289Z,31.86
2022-08-31T08:33:34.143Z,32.37
2022-08-31T08:36:03.540Z,32.45
2022-08-31T08:38:31.585Z,32.83
2022-08-31T08:41:01.071Z,32.77
2022-08-31T08:43:34.514Z,33.31
2022-08-31T08:46:15.218Z,33.06
2022-08-31T08:48:55.498Z,32.89
2022-08-31T08:51:26.389Z,33.27
2022-08-31T08:54:01.823Z,33.07
2022-08-31T08:56:33.845Z,33.63
2022-08-31T08:59:01.180Z,32.38
2022-08-31T09:01:29.755Z,33.85
2022-08-31T09:04:11.477Z,34.39
2022-08-31T09:07:23.201Z,34.39
2022-08-31T09:10:03.717Z,34.13
2022-08-31T09:12:49.127Z,35.83
2022-08-31T09:15:47.808Z,34.85
2022-08-31T09:18:36.387Z,34.50
2022-08-31T09:21:22.151Z,35.78
2022-08-31T09:23:59.702Z,35.77
2022-08-31T09:26:27.897Z,35.47
2022-08-31T09:28:55.985Z,35.85
2022-08-31T09:31:39.802Z,35.09
2022-08-31T09:34:12.649Z,36.66
2022-08-31T09:36:43.168Z,34.13
2022-08-31T09:39:28.573Z,34.16
2022-08-31T09:42:12.269Z,34.40
2022-08-31T09:44:42.148Z,34.40
2022-08-31T09:47:42.714Z,35.00
2022-08-31T09:50:11.099Z,35.63
2022-08-31T09:52:58.612Z,34.44
2022-08-31T09:55:28.227Z,34.34
2022-08-31T09:58:01.438Z,34.88
2022-08-31T10:00:32.752Z,35.29
2022-08-31T10:03:08.962Z,35.01
2022-08-31T10:05:40.732Z,35.67
2022-08-31T10:08:20.451Z,35.52
2022-08-31T10:10:50.525Z,34.65
2022-08-31T10:13:38.678Z,34.89
2022-08-31T10:16:26.511Z,35.01
2022-08-31T10:19:06.598Z,36.21
2022-08-31T10:21:52.209Z,35.33
2022-08-31T10:24:34.576Z,34.89
2022-08-31T10:27:08.198Z,35.59
2022-08-31T10:29:54.283Z,35.10
2022-08-31T10:32:32.891Z,34.99
2022-08-31T10:35:19.500Z,35.90
2022-08-31T10:38:08.582Z,35.37
2022-08-31T10:40:44.070Z,35.29
2022-08-31T10:43:17.833Z,35.82
2022-08-31T10:45:49.103Z,35.57
2022-08-31T10:48:18.370Z,35.14
2022-08-31T10:51:19.533Z,35.84
2022-08-31T10:54:12.208Z,35.68
2022-08-31T10:57:09.626Z,35.13
2022-08-31T10:59:59.828Z,35.49
2022-08-31T11:02:50.905Z,36.56
2022-08-31T11:05:50.955Z,36.45
2022-08-31T11:08:38.591Z,36.28
2022-08-31T11:11:11.179Z,36.39
2022-08-31T11:14:00.521Z,34.77
2022-08-31T11:16:43.671Z,35.19
2022-08-31T11:19:28.392Z,35.82
2022-08-31T11:22:20.812Z,35.77
2022-08-31T11:25:03.345Z,36.17
2022-08-31T11:27:44.410Z,36.46
2022-08-31T11:30:24.562Z,36.72
2022-08-31T11:32:59.612Z,36.56
2022-08-31T11:36:04.070Z,36.14
2022-08-31T11:38:52.153Z,37.20
2022-08-31T11:41:34.668Z,36.69
2022-08-31T11:44:04.500Z,37.15
2022-08-31T11:46:34.007Z,36.54
2022-08-31T11:49:00.952Z,37.24
2022-08-31T11:51:40.934Z,36.18
2022-08-31T11:54:51.354Z,37.67
2022-08-31T11:59:46.369Z,36.67
2022-08-31T12:02:25.998Z,36.47
2022-08-31T12:04:53.323Z,37.08
2022-08-31T12:07:41.194Z,37.12
2022-08-31T12:10:27.629Z,38.11
2022-08-31T12:13:24.072Z,37.73
2022-08-31T12:16:06.928Z,38.17
2022-08-31T12:18:46.336Z,37.34
2022-08-31T12:21:50.065Z,39.85
2022-08-31T12:24:25.260Z,37.07
2022-08-31T12:27:16.053Z,37.28
2022-08-31T12:29:42.863Z,37.67
2022-08-31T12:32:36.145Z,37.67
2022-08-31T12:35:14.059Z,37.12
2022-08-31T12:37:41.047Z,37.52
2022-08-31T12:40:21.066Z,38.19
2022-08-31T12:43:03.996Z,37.05
2022-08-31T12:45:45.286Z,37.72
2022-08-31T12:48:33.599Z,36.41
2022-08-31T12:51:03.063Z,37.59
2022-08-31T12:53:49.290Z,37.77
2022-08-31T12:56:29.127Z,37.28
2022-08-31T12:59:40.817Z,37.25
2022-08-31T13:02:14.597Z,37.85
2022-08-31T13:04:45.402Z,37.72
2022-08-31T13:07:18.156Z,37.11
2022-08-31T13:09:45.896Z,37.08
2022-08-31T13:12:23.334Z,37.31
2022-08-31T13:14:49.749Z,37.96
2022-08-31T13:17:22.103Z,37.84
2022-08-31T13:19:56.789Z,37.05
2022-08-31T13:22:30.432Z,36.76
2022-08-31T13:25:38.298Z,36.52
2022-08-31T13:28:11.957Z,36.46
2022-08-31T13:30:40.229Z,36.66
2022-08-31T13:33:31.372Z,37.25
2022-08-31T13:36:09.921Z,38.19
2022-08-31T13:38:48.444Z,37.99
2022-08-31T13:41:38.257Z,36.84
2022-08-31T13:44:09.739Z,36.59
2022-08-31T13:46:43.792Z,37.04
2022-08-31T13:49:35.872Z,36.38
2022-08-31T13:52:16.650Z,36.54
2022-08-31T13:54:43.245Z,35.26
2022-08-31T13:57:20.649Z,35.86
2022-08-31T13:59:47.750Z,37.88
2022-08-31T14:02:19.503Z,36.43
2022-08-31T14:04:57.153Z,35.85
2022-08-31T14:07:31.597Z,36.19
2022-08-31T14:10:19.368Z,36.36
2022-08-31T14:13:10.250Z,35.52
2022-08-31T14:15:48.954Z,35.51
2022-08-31T14:18:40.574Z,35.93
2022-08-31T14:21:24.248Z,36.37
2022-08-31T14:24:01.939Z,36.20
2022-08-31T14:26:32.385Z,36.78
2022-08-31T14:29:02.431Z,36.18
2022-08-31T14:31:48.442Z,36.20
2022-08-31T14:34:22.298Z,35.61
2022-08-31T14:36:59.293Z,36.52
2022-08-31T14:39:37.934Z,35.82
2022-08-31T14:42:18.200Z,35.73
2022-08-31T14:44:53.778Z,36.78
2022-08-31T14:47:21.476Z,36.05
2022-08-31T14:49:49.071Z,36.46
2022-08-31T14:52:16.281Z,36.06
2022-08-31T14:54:43.900Z,35.49
2022-08-31T14:57:17.760Z,35.52
2022-08-31T14:59:46.635Z,35.56
2022-08-31T15:02:21.360Z,36.85
2022-08-31T15:04:48.541Z,37.35
2022-08-31T15:07:15.997Z,35.61
2022-08-31T15:09:43.984Z,35.33
2022-08-31T15:12:14.711Z,35.75
2022-08-31T15:14:42.460Z,35.24
2022-08-31T15:17:13.051Z,36.33
2022-08-31T15:19:48.242Z,36.87
2022-08-31T15:22:15.856Z,36.21
2022-08-31T15:24:44.719Z,36.25
2022-08-31T15:27:15.049Z,35.74
2022-08-31T15:29:46.823Z,36.61
2022-08-31T15:32:17.373Z,35.47
2022-08-31T15:34:51.317Z,35.52
2022-08-31T15:37:17.855Z,35.73
2022-08-31T15:39:49.047Z,35.96
2022-08-31T15:42:21.300Z,35.83
2022-08-31T15:44:58.213Z,35.41
2022-08-31T15:47:46.378Z,35.33
2022-08-31T15:50:13.472Z,36.61
2022-08-31T15:52:51.139Z,35.60
2022-08-31T15:55:23.178Z,35.72
2022-08-31T15:57:49.681Z,36.44
2022-08-31T16:00:16.246Z,36.30
2022-08-31T16:02:44.094Z,35.73
2022-08-31T16:05:12.336Z,35.13
2022-08-31T16:07:40.028Z,35.52
2022-08-31T16:10:16.703Z,36.07
2022-08-31T16:12:45.740Z,36.69
2022-08-31T16:15:15.343Z,36.06
2022-08-31T16:17:41.964Z,36.35
2022-08-31T16:20:10.358Z,37.06
2022-08-31T16:22:37.513Z,36.03
2022-08-31T16:25:06.766Z,36.44
2022-08-31T16:27:34.161Z,35.88
2022-08-31T16:30:00.784Z,35.73
2022-08-31T16:32:27.795Z,36.24
2022-08-31T16:34:54.943Z,35.72
2022-08-31T16:37:21.533Z,36.43
2022-08-31T16:39:48.415Z,36.35
2022-08-31T16:42:16.307Z,35.81
2022-08-31T16:44:46.875Z,35.98
2022-08-31T16:47:16.833Z,36.41
2022-08-31T16:49:44.000Z,36.47
2022-08-31T16:52:26.393Z,36.08
2022-08-31T16:54:54.584Z,36.31
2022-08-31T16:57:24.068Z,36.07
2022-08-31T16:59:51.223Z,36.32
2022-08-31T17:02:19.694Z,36.74
2022-08-31T17:04:54.550Z,36.27
2022-08-31T17:07:24.235Z,36.87
2022-08-31T17:09:51.313Z,36.99
2022-08-31T17:12:21.398Z,37.45
2022-08-31T17:14:52.172Z,37.32
2022-08-31T17:17:23.279Z,36.97
2022-08-31T17:19:52.224Z,36.82
2022-08-31T17:22:25.810Z,36.55
2022-08-31T17:24:57.611Z,37.47
2022-08-31T17:27:25.535Z,36.85
2022-08-31T17:29:55.886Z,37.88
2022-08-31T17:32:25.882Z,37.23
2022-08-31T17:34:54.484Z,38.06
2022-08-31T17:37:27.628Z,37.88
2022-08-31T17:39:55.562Z,37.57
2022-08-31T17:42:26.668Z,38.05
2022-08-31T17:44:53.541Z,38.06
2022-08-31T17:47:22.148Z,38.54
2022-08-31T17:49:51.101Z,38.35
2022-08-31T17:52:20.442Z,38.62
2022-08-31T17:54:48.588Z,38.50
2022-08-31T17:57:16.410Z,38.94
2022-08-31T17:59:48.745Z,39.26
2022-08-31T18:02:21.059Z,39.48
2022-08-31T18:04:48.839Z,39.57
2022-08-31T18:07:15.621Z,39.71
2022-08-31T18:09:47.063Z,40.19
2022-08-31T18:12:15.636Z,40.38
2022-08-31T18:14:42.878Z,40.79
2022-08-31T18:17:11.383Z,40.65
2022-08-31T18:19:38.831Z,40.49
2022-08-31T18:22:06.589Z,40.44
2022-08-31T18:24:35.584Z,41.04
2022-08-31T18:27:04.122Z,41.09
2022-08-31T18:29:34.168Z,41.35
2022-08-31T18:32:05.059Z,41.36
2022-08-31T18:34:34.088Z,41.72
2022-08-31T18:37:01.169Z,41.94
2022-08-31T18:39:51.208Z,41.70
2022-08-31T18:42:36.545Z,42.09
2022-08-31T18:45:19.543Z,41.85
2022-08-31T18:48:23.984Z,42.04
2022-08-31T18:50:46.995Z,42.55
2022-08-31T18:53:29.030Z,42.82
2022-08-31T18:56:07.972Z,42.82
2022-08-31T18:58:35.835Z,43.47
2022-08-31T19:01:02.852Z,44.29
2022-08-31T19:03:30.190Z,45.07
2022-08-31T19:05:57.012Z,45.64
2022-08-31T19:08:24.340Z,46.17
2022-08-31T19:10:51.300Z,46.35
2022-08-31T19:13:18.050Z,46.25
2022-08-31T19:15:45.802Z,46.51
2022-08-31T19:18:14.021Z,46.08
2022-08-31T19:20:42.610Z,46.26
2022-08-31T19:23:09.093Z,47.09
2022-08-31T19:25:44.176Z,47.46
2022-08-31T19:28:11.372Z,47.38
2022-08-31T19:30:38.169Z,46.82
2022-08-31T19:33:08.538Z,47.47
2022-08-31T19:35:36.450Z,47.38
2022-08-31T19:38:03.179Z,47.84
2022-08-31T19:40:38.089Z,47.55
2022-08-31T19:45:53.144Z,46.38
2022-08-31T19:48:23.896Z,45.81
2022-08-31T19:50:51.424Z,46.47
2022-08-31T19:53:21.015Z,46.63
2022-08-31T19:55:51.492Z,47.15
2022-08-31T19:58:22.003Z,48.15
2022-08-31T20:00:49.901Z,48.42
2022-08-31T20:03:19.251Z,47.80
2022-08-31T20:05:46.571Z,48.49
2022-08-31T20:08:12.980Z,47.34
2022-08-31T20:10:44.732Z,47.11
2022-08-31T20:13:12.708Z,47.16
2022-08-31T20:15:44.458Z,47.11
2022-08-31T20:18:11.961Z,47.28
2022-08-31T20:20:46.024Z,47.52
2022-08-31T20:23:18.178Z,47.85
2022-08-31T20:25:46.417Z,47.93
2022-08-31T20:28:13.500Z,48.22
2022-08-31T20:30:42.423Z,48.47
2022-08-31T20:33:11.490Z,49.00
2022-08-31T20:35:47.076Z,49.48
2022-08-31T20:38:15.208Z,49.45
2022-08-31T20:40:43.485Z,49.96
2022-08-31T20:43:12.698Z,49.99
2022-08-31T20:45:40.845Z,50.19
2022-08-31T20:48:26.730Z,50.38
2022-08-31T20:50:53.248Z,50.61
2022-08-31T20:53:42.717Z,50.67
2022-08-31T20:56:07.973Z,51.03
2022-08-31T20:58:35.045Z,50.95
2022-08-31T21:01:06.919Z,51.29
2022-08-31T21:03:34.168Z,51.11
2022-08-31T21:06:08.268Z,51.64
2022-08-31T21:08:39.068Z,52.13
2022-08-31T21:11:12.872Z,52.38
2022-08-31T21:13:39.557Z,52.63
2022-08-31T21:16:06.282Z,52.96
2022-08-31T21:18:34.956Z,53.06
2022-08-31T21:21:08.034Z,53.26
2022-08-31T21:23:38.621Z,53.26
2022-08-31T21:26:09.953Z,53.73
2022-08-31T21:28:38.422Z,54.09
2022-08-31T21:31:15.657Z,54.40
2022-08-31T21:33:46.347Z,54.81
2022-08-31T21:36:15.656Z,54.94
2022-08-31T21:38:44.129Z,55.49
2022-08-31T21:41:12.916Z,55.57
2022-08-31T21:43:40.316Z,55.65
2022-08-31T21:46:09.840Z,55.72
2022-08-31T21:48:38.447Z,56.12
2022-08-31T21:51:15.759Z,56.56
2022-08-31T21:53:44.293Z,57.11
2022-08-31T21:56:10.884Z,57.03
2022-08-31T21:58:37.884Z,57.34
2022-08-31T22:01:08.088Z,57.59
2022-08-31T22:03:40.536Z,58.05
2022-08-31T22:06:12.713Z,58.45
2022-08-31T22:08:41.432Z,58.57
2022-08-31T22:11:11.201Z,58.99
2022-08-31T22:13:40.961Z,58.98
2022-08-31T22:16:14.216Z,59.41
2022-08-31T22:19:05.777Z,59.24
2022-08-31T22:21:34.872Z,59.55
2022-08-31T22:24:05.560Z,59.92
2022-08-31T22:26:40.433Z,59.63
2022-08-31T22:29:09.168Z,60.44
2022-08-31T22:31:37.283Z,60.91
2022-08-31T22:34:05.499Z,60.86
2022-08-31T22:36:32.644Z,61.01
2022-08-31T22:39:03.456Z,61.66
2022-08-31T22:41:32.655Z,61.89
2022-08-31T22:44:00.172Z,62.01
2022-08-31T22:46:26.872Z,61.99
2022-08-31T22:48:53.309Z,62.22
2022-08-31T22:51:20.491Z,62.20
2022-08-31T22:53:57.215Z,62.42
2022-08-31T22:56:50.069Z,62.37
2022-08-31T22:59:31.397Z,62.50
2022-08-31T23:02:08.646Z,62.59
2022-08-31T23:04:36.194Z,62.34
2022-08-31T23:11:21.903Z,62.25
2022-08-31T23:14:07.259Z,62.60
2022-08-31T23:16:46.271Z,62.76
2022-08-31T23:22:34.094Z,62.89
2022-08-31T23:25:01.088Z,62.63
2022-08-31T23:27:27.672Z,62.80
2022-08-31T23:29:58.827Z,62.95
2022-08-31T23:32:32.285Z,62.87
2022-08-31T23:34:58.731Z,62.64
2022-08-31T23:37:26.949Z,62.71
2022-08-31T23:39:55.850Z,62.91
2022-08-31T23:42:25.088Z,63.32
2022-08-31T23:44:51.677Z,63.29
2022-08-31T23:47:21.428Z,63.91
2022-08-31T23:49:51.271Z,63.83
2022-08-31T23:52:21.346Z,64.02
2022-08-31T23:54:50.329Z,64.27
2022-08-31T23:57:31.482Z,63.71
